sensor_id;sensor_type;location;lat;lon;timestamp;P1;durP1;ratioP1;P2;durP2;ratioP2
10052;SDS011;52418;53.134;8.236;2022-10-28T00:00:28;1.50;;;1.40;;
10052;SDS011;52418;53.134;8.236;2022-10-28T00:02:53;1.30;;;1.30;;
10052;SDS011;52418;53.134;8.236;2022-10-28T00:05:18;1.37;;;1.37;;
10052;SDS011;52418;53.134;8.236;2022-10-28T00:07:43;1.50;;;1.40;;
10052;SDS011;52418;53.134;8.236;2022-10-28T00:10:09;1.50;;;1.40;;
10052;SDS011;52418;53.134;8.236;2022-10-28T00:12:34;1.30;;;1.30;;
10052;SDS011;52418;53.134;8.236;2022-10-28T00:15:00;1.20;;;1.20;;
10052;SDS011;52418;53.134;8.236;2022-10-28T00:17:25;1.20;;;1.20;;
10052;SDS011;52418;53.134;8.236;2022-10-28T00:19:50;1.30;;;1.30;;
10052;SDS011;52418;53.134;8.236;2022-10-28T00:22:15;1.30;;;1.30;;
10052;SDS011;52418;53.134;8.236;2022-10-28T00:24:40;1.20;;;1.20;;
10052;SDS011;52418;53.134;8.236;2022-10-28T00:27:06;1.30;;;1.30;;
10052;SDS011;52418;53.134;8.236;2022-10-28T00:29:31;1.30;;;1.30;;
10052;SDS011;52418;53.134;8.236;2022-10-28T00:31:56;1.20;;;1.20;;
10052;SDS011;52418;53.134;8.236;2022-10-28T00:34:21;1.30;;;1.30;;
10052;SDS011;52418;53.134;8.236;2022-10-28T00:36:46;1.37;;;1.33;;
10052;SDS011;52418;53.134;8.236;2022-10-28T00:39:19;1.37;;;1.33;;
10052;SDS011;52418;53.134;8.236;2022-10-28T00:41:46;1.30;;;1.30;;
10052;SDS011;52418;53.134;8.236;2022-10-28T00:46:55;1.40;;;1.40;;
10052;SDS011;52418;53.134;8.236;2022-10-28T00:49:21;1.30;;;1.30;;
10052;SDS011;52418;53.134;8.236;2022-10-28T00:51:49;1.30;;;1.30;;
10052;SDS011;52418;53.134;8.236;2022-10-28T00:54:16;1.30;;;1.30;;
10052;SDS011;52418;53.134;8.236;2022-10-28T00:56:43;1.30;;;1.30;;
10052;SDS011;52418;53.134;8.236;2022-10-28T00:59:10;1.40;;;1.40;;
10052;SDS011;52418;53.134;8.236;2022-10-28T01:01:37;1.50;;;1.40;;
10052;SDS011;52418;53.134;8.236;2022-10-28T01:04:02;1.50;;;1.40;;
10052;SDS011;52418;53.134;8.236;2022-10-28T01:06:27;1.30;;;1.30;;
10052;SDS011;52418;53.134;8.236;2022-10-28T01:08:53;1.40;;;1.33;;
10052;SDS011;52418;53.134;8.236;2022-10-28T01:24:34;1.60;;;1.50;;
10052;SDS011;52418;53.134;8.236;2022-10-28T01:27:14;1.50;;;1.40;;
10052;SDS011;52418;53.134;8.236;2022-10-28T01:40:15;1.20;;;1.20;;
10052;SDS011;52418;53.134;8.236;2022-10-28T01:42:43;1.30;;;1.30;;
10052;SDS011;52418;53.134;8.236;2022-10-28T01:45:12;1.30;;;1.30;;
10052;SDS011;52418;53.134;8.236;2022-10-28T01:47:48;1.50;;;1.40;;
10052;SDS011;52418;53.134;8.236;2022-10-28T01:50:17;1.30;;;1.30;;
10052;SDS011;52418;53.134;8.236;2022-10-28T01:52:45;1.50;;;1.40;;
10052;SDS011;52418;53.134;8.236;2022-10-28T01:55:18;1.20;;;1.20;;
10052;SDS011;52418;53.134;8.236;2022-10-28T01:57:45;1.30;;;1.30;;
10052;SDS011;52418;53.134;8.236;2022-10-28T02:00:12;1.20;;;1.20;;
10052;SDS011;52418;53.134;8.236;2022-10-28T02:02:37;1.20;;;1.20;;
10052;SDS011;52418;53.134;8.236;2022-10-28T02:07:47;1.30;;;1.30;;
10052;SDS011;52418;53.134;8.236;2022-10-28T02:10:15;1.30;;;1.30;;
10052;SDS011;52418;53.134;8.236;2022-10-28T02:12:40;1.50;;;1.40;;
10052;SDS011;52418;53.134;8.236;2022-10-28T02:15:17;1.20;;;1.20;;
10052;SDS011;52418;53.134;8.236;2022-10-28T02:17:48;1.50;;;1.40;;
10052;SDS011;52418;53.134;8.236;2022-10-28T02:20:25;1.20;;;1.20;;
10052;SDS011;52418;53.134;8.236;2022-10-28T02:22:53;1.30;;;1.30;;
10052;SDS011;52418;53.134;8.236;2022-10-28T02:25:25;1.30;;;1.30;;
10052;SDS011;52418;53.134;8.236;2022-10-28T02:30:23;1.20;;;1.20;;
10052;SDS011;52418;53.134;8.236;2022-10-28T02:32:59;1.23;;;1.23;;
10052;SDS011;52418;53.134;8.236;2022-10-28T02:35:47;1.27;;;1.27;;
10052;SDS011;52418;53.134;8.236;2022-10-28T02:38:12;1.20;;;1.20;;
10052;SDS011;52418;53.134;8.236;2022-10-28T02:40:38;1.17;;;1.17;;
10052;SDS011;52418;53.134;8.236;2022-10-28T02:43:05;1.20;;;1.20;;
10052;SDS011;52418;53.134;8.236;2022-10-28T02:45:32;1.50;;;1.40;;
10052;SDS011;52418;53.134;8.236;2022-10-28T02:48:02;1.30;;;1.30;;
10052;SDS011;52418;53.134;8.236;2022-10-28T02:50:29;1.23;;;1.23;;
10052;SDS011;52418;53.134;8.236;2022-10-28T02:52:57;1.50;;;1.40;;
10052;SDS011;52418;53.134;8.236;2022-10-28T02:55:23;1.30;;;1.30;;
10052;SDS011;52418;53.134;8.236;2022-10-28T02:57:51;1.50;;;1.40;;
10052;SDS011;52418;53.134;8.236;2022-10-28T03:00:20;1.23;;;1.23;;
10052;SDS011;52418;53.134;8.236;2022-10-28T03:02:46;1.23;;;1.23;;
10052;SDS011;52418;53.134;8.236;2022-10-28T03:05:11;1.50;;;1.40;;
10052;SDS011;52418;53.134;8.236;2022-10-28T03:07:36;1.20;;;1.20;;
10052;SDS011;52418;53.134;8.236;2022-10-28T03:10:02;1.30;;;1.30;;
10052;SDS011;52418;53.134;8.236;2022-10-28T03:12:27;1.30;;;1.30;;
10052;SDS011;52418;53.134;8.236;2022-10-28T03:14:52;1.30;;;1.30;;
10052;SDS011;52418;53.134;8.236;2022-10-28T03:17:17;1.20;;;1.20;;
10052;SDS011;52418;53.134;8.236;2022-10-28T03:19:42;1.30;;;1.30;;
10052;SDS011;52418;53.134;8.236;2022-10-28T03:22:07;1.30;;;1.30;;
10052;SDS011;52418;53.134;8.236;2022-10-28T03:24:32;1.30;;;1.30;;
10052;SDS011;52418;53.134;8.236;2022-10-28T03:26:58;1.30;;;1.30;;
10052;SDS011;52418;53.134;8.236;2022-10-28T03:29:23;1.30;;;1.30;;
10052;SDS011;52418;53.134;8.236;2022-10-28T03:31:48;1.20;;;1.20;;
10052;SDS011;52418;53.134;8.236;2022-10-28T03:34:13;1.20;;;1.20;;
10052;SDS011;52418;53.134;8.236;2022-10-28T03:36:38;1.20;;;1.20;;
10052;SDS011;52418;53.134;8.236;2022-10-28T03:39:03;1.47;;;1.40;;
10052;SDS011;52418;53.134;8.236;2022-10-28T03:41:29;1.50;;;1.40;;
10052;SDS011;52418;53.134;8.236;2022-10-28T03:43:54;1.50;;;1.40;;
10052;SDS011;52418;53.134;8.236;2022-10-28T03:46:19;1.57;;;1.47;;
10052;SDS011;52418;53.134;8.236;2022-10-28T03:48:44;1.50;;;1.40;;
10052;SDS011;52418;53.134;8.236;2022-10-28T03:51:09;1.33;;;1.30;;
10052;SDS011;52418;53.134;8.236;2022-10-28T03:53:35;1.30;;;1.30;;
10052;SDS011;52418;53.134;8.236;2022-10-28T03:56:00;1.60;;;1.50;;
10052;SDS011;52418;53.134;8.236;2022-10-28T03:58:26;1.50;;;1.40;;
10052;SDS011;52418;53.134;8.236;2022-10-28T04:00:51;1.50;;;1.40;;
10052;SDS011;52418;53.134;8.236;2022-10-28T04:03:17;1.40;;;1.37;;
10052;SDS011;52418;53.134;8.236;2022-10-28T04:05:43;1.50;;;1.40;;
10052;SDS011;52418;53.134;8.236;2022-10-28T04:08:08;1.53;;;1.43;;
10052;SDS011;52418;53.134;8.236;2022-10-28T04:10:33;1.30;;;1.30;;
10052;SDS011;52418;53.134;8.236;2022-10-28T04:12:59;1.50;;;1.40;;
10052;SDS011;52418;53.134;8.236;2022-10-28T04:15:24;1.37;;;1.37;;
10052;SDS011;52418;53.134;8.236;2022-10-28T04:17:49;1.47;;;1.37;;
10052;SDS011;52418;53.134;8.236;2022-10-28T04:20:15;1.50;;;1.40;;
10052;SDS011;52418;53.134;8.236;2022-10-28T04:22:40;1.47;;;1.40;;
10052;SDS011;52418;53.134;8.236;2022-10-28T04:25:05;1.30;;;1.30;;
10052;SDS011;52418;53.134;8.236;2022-10-28T04:27:30;1.30;;;1.30;;
10052;SDS011;52418;53.134;8.236;2022-10-28T04:29:56;1.30;;;1.30;;
10052;SDS011;52418;53.134;8.236;2022-10-28T04:32:21;1.00;;;1.00;;
10052;SDS011;52418;53.134;8.236;2022-10-28T04:34:46;1.30;;;1.30;;
10052;SDS011;52418;53.134;8.236;2022-10-28T04:37:11;1.30;;;1.30;;
10052;SDS011;52418;53.134;8.236;2022-10-28T04:39:36;1.30;;;1.30;;
10052;SDS011;52418;53.134;8.236;2022-10-28T04:42:01;1.30;;;1.30;;
10052;SDS011;52418;53.134;8.236;2022-10-28T04:44:26;1.37;;;1.37;;
10052;SDS011;52418;53.134;8.236;2022-10-28T04:46:54;1.30;;;1.30;;
10052;SDS011;52418;53.134;8.236;2022-10-28T04:49:19;1.50;;;1.40;;
10052;SDS011;52418;53.134;8.236;2022-10-28T04:51:44;1.30;;;1.30;;
10052;SDS011;52418;53.134;8.236;2022-10-28T04:54:09;1.50;;;1.40;;
10052;SDS011;52418;53.134;8.236;2022-10-28T04:56:34;1.50;;;1.40;;
10052;SDS011;52418;53.134;8.236;2022-10-28T04:58:59;1.50;;;1.40;;
10052;SDS011;52418;53.134;8.236;2022-10-28T05:01:25;1.30;;;1.30;;
10052;SDS011;52418;53.134;8.236;2022-10-28T05:03:50;1.30;;;1.30;;
10052;SDS011;52418;53.134;8.236;2022-10-28T05:06:15;1.30;;;1.30;;
10052;SDS011;52418;53.134;8.236;2022-10-28T05:08:40;1.30;;;1.30;;
10052;SDS011;52418;53.134;8.236;2022-10-28T05:11:05;1.50;;;1.40;;
10052;SDS011;52418;53.134;8.236;2022-10-28T05:13:31;1.30;;;1.30;;
10052;SDS011;52418;53.134;8.236;2022-10-28T05:15:56;1.30;;;1.30;;
10052;SDS011;52418;53.134;8.236;2022-10-28T05:18:21;1.30;;;1.30;;
10052;SDS011;52418;53.134;8.236;2022-10-28T05:20:46;1.30;;;1.30;;
10052;SDS011;52418;53.134;8.236;2022-10-28T05:23:16;1.50;;;1.40;;
10052;SDS011;52418;53.134;8.236;2022-10-28T05:25:41;1.20;;;1.20;;
10052;SDS011;52418;53.134;8.236;2022-10-28T05:28:06;1.35;;;1.30;;
10052;SDS011;52418;53.134;8.236;2022-10-28T05:30:32;1.30;;;1.30;;
10052;SDS011;52418;53.134;8.236;2022-10-28T05:32:57;1.23;;;1.23;;
10052;SDS011;52418;53.134;8.236;2022-10-28T05:35:22;1.30;;;1.30;;
10052;SDS011;52418;53.134;8.236;2022-10-28T05:37:48;1.50;;;1.40;;
10052;SDS011;52418;53.134;8.236;2022-10-28T05:40:13;1.30;;;1.30;;
10052;SDS011;52418;53.134;8.236;2022-10-28T05:42:41;1.50;;;1.40;;
10052;SDS011;52418;53.134;8.236;2022-10-28T05:45:07;1.60;;;1.50;;
10052;SDS011;52418;53.134;8.236;2022-10-28T05:47:33;1.30;;;1.30;;
10052;SDS011;52418;53.134;8.236;2022-10-28T05:49:59;1.30;;;1.30;;
10052;SDS011;52418;53.134;8.236;2022-10-28T05:54:52;1.30;;;1.30;;
10052;SDS011;52418;53.134;8.236;2022-10-28T05:57:32;1.30;;;1.30;;
10052;SDS011;52418;53.134;8.236;2022-10-28T06:00:12;1.30;;;1.30;;
10052;SDS011;52418;53.134;8.236;2022-10-28T06:02:40;1.20;;;1.20;;
10052;SDS011;52418;53.134;8.236;2022-10-28T06:05:08;1.30;;;1.30;;
10052;SDS011;52418;53.134;8.236;2022-10-28T06:07:38;1.20;;;1.20;;
10052;SDS011;52418;53.134;8.236;2022-10-28T06:10:04;1.50;;;1.40;;
10052;SDS011;52418;53.134;8.236;2022-10-28T06:12:30;1.33;;;1.33;;
10052;SDS011;52418;53.134;8.236;2022-10-28T06:14:55;1.37;;;1.30;;
10052;SDS011;52418;53.134;8.236;2022-10-28T06:17:20;1.23;;;1.23;;
10052;SDS011;52418;53.134;8.236;2022-10-28T06:19:45;1.13;;;1.13;;
10052;SDS011;52418;53.134;8.236;2022-10-28T06:22:11;1.20;;;1.20;;
10052;SDS011;52418;53.134;8.236;2022-10-28T06:24:36;1.30;;;1.30;;
10052;SDS011;52418;53.134;8.236;2022-10-28T06:27:01;1.10;;;1.10;;
10052;SDS011;52418;53.134;8.236;2022-10-28T06:29:26;1.30;;;1.30;;
10052;SDS011;52418;53.134;8.236;2022-10-28T06:31:51;1.20;;;1.20;;
10052;SDS011;52418;53.134;8.236;2022-10-28T06:34:16;1.10;;;1.10;;
10052;SDS011;52418;53.134;8.236;2022-10-28T06:36:41;1.20;;;1.20;;
10052;SDS011;52418;53.134;8.236;2022-10-28T06:39:07;1.10;;;1.10;;
10052;SDS011;52418;53.134;8.236;2022-10-28T06:41:33;1.10;;;1.10;;
10052;SDS011;52418;53.134;8.236;2022-10-28T06:43:58;1.03;;;1.03;;
10052;SDS011;52418;53.134;8.236;2022-10-28T06:46:23;1.10;;;1.10;;
10052;SDS011;52418;53.134;8.236;2022-10-28T06:48:49;1.20;;;1.20;;
10052;SDS011;52418;53.134;8.236;2022-10-28T06:51:14;1.10;;;1.10;;
10052;SDS011;52418;53.134;8.236;2022-10-28T06:53:41;1.07;;;1.07;;
10052;SDS011;52418;53.134;8.236;2022-10-28T06:56:06;1.10;;;1.10;;
10052;SDS011;52418;53.134;8.236;2022-10-28T06:58:32;1.20;;;1.20;;
10052;SDS011;52418;53.134;8.236;2022-10-28T07:01:01;1.10;;;1.10;;
10052;SDS011;52418;53.134;8.236;2022-10-28T07:03:26;1.10;;;1.10;;
10052;SDS011;52418;53.134;8.236;2022-10-28T07:05:51;1.10;;;1.10;;
10052;SDS011;52418;53.134;8.236;2022-10-28T07:08:18;1.27;;;1.27;;
10052;SDS011;52418;53.134;8.236;2022-10-28T07:10:43;1.00;;;1.00;;
10052;SDS011;52418;53.134;8.236;2022-10-28T07:13:16;1.20;;;1.20;;
10052;SDS011;52418;53.134;8.236;2022-10-28T07:15:41;1.10;;;1.10;;
10052;SDS011;52418;53.134;8.236;2022-10-28T07:18:07;1.10;;;1.10;;
10052;SDS011;52418;53.134;8.236;2022-10-28T07:20:32;1.20;;;1.20;;
10052;SDS011;52418;53.134;8.236;2022-10-28T07:22:58;1.10;;;1.10;;
10052;SDS011;52418;53.134;8.236;2022-10-28T07:25:24;1.10;;;1.10;;
10052;SDS011;52418;53.134;8.236;2022-10-28T07:27:49;1.10;;;1.10;;
10052;SDS011;52418;53.134;8.236;2022-10-28T07:30:14;1.10;;;1.10;;
10052;SDS011;52418;53.134;8.236;2022-10-28T07:32:39;1.20;;;1.20;;
10052;SDS011;52418;53.134;8.236;2022-10-28T07:35:04;1.10;;;1.10;;
10052;SDS011;52418;53.134;8.236;2022-10-28T07:37:29;1.10;;;1.10;;
10052;SDS011;52418;53.134;8.236;2022-10-28T07:39:55;1.13;;;1.13;;
10052;SDS011;52418;53.134;8.236;2022-10-28T07:42:20;1.10;;;1.10;;
10052;SDS011;52418;53.134;8.236;2022-10-28T07:44:45;1.07;;;1.07;;
10052;SDS011;52418;53.134;8.236;2022-10-28T07:47:10;1.00;;;1.00;;
10052;SDS011;52418;53.134;8.236;2022-10-28T07:49:35;1.10;;;1.10;;
10052;SDS011;52418;53.134;8.236;2022-10-28T07:52:00;1.20;;;1.20;;
10052;SDS011;52418;53.134;8.236;2022-10-28T07:54:26;1.20;;;1.20;;
10052;SDS011;52418;53.134;8.236;2022-10-28T07:56:51;1.20;;;1.20;;
10052;SDS011;52418;53.134;8.236;2022-10-28T07:59:16;1.10;;;1.10;;
10052;SDS011;52418;53.134;8.236;2022-10-28T08:01:41;1.20;;;1.20;;
10052;SDS011;52418;53.134;8.236;2022-10-28T08:04:06;1.20;;;1.20;;
10052;SDS011;52418;53.134;8.236;2022-10-28T08:06:32;1.20;;;1.20;;
10052;SDS011;52418;53.134;8.236;2022-10-28T08:08:57;1.20;;;1.20;;
10052;SDS011;52418;53.134;8.236;2022-10-28T08:11:22;1.20;;;1.20;;
10052;SDS011;52418;53.134;8.236;2022-10-28T08:13:48;1.20;;;1.20;;
10052;SDS011;52418;53.134;8.236;2022-10-28T08:16:13;1.20;;;1.20;;
10052;SDS011;52418;53.134;8.236;2022-10-28T08:18:39;1.30;;;1.30;;
10052;SDS011;52418;53.134;8.236;2022-10-28T08:21:04;1.20;;;1.20;;
10052;SDS011;52418;53.134;8.236;2022-10-28T08:23:30;1.20;;;1.20;;
10052;SDS011;52418;53.134;8.236;2022-10-28T08:25:55;1.30;;;1.30;;
10052;SDS011;52418;53.134;8.236;2022-10-28T08:28:21;1.30;;;1.30;;
10052;SDS011;52418;53.134;8.236;2022-10-28T08:30:46;1.50;;;1.40;;
10052;SDS011;52418;53.134;8.236;2022-10-28T08:33:12;1.43;;;1.40;;
10052;SDS011;52418;53.134;8.236;2022-10-28T08:35:37;1.20;;;1.20;;
10052;SDS011;52418;53.134;8.236;2022-10-28T08:38:02;1.60;;;1.50;;
10052;SDS011;52418;53.134;8.236;2022-10-28T08:40:35;1.23;;;1.23;;
10052;SDS011;52418;53.134;8.236;2022-10-28T08:43:04;1.60;;;1.50;;
10052;SDS011;52418;53.134;8.236;2022-10-28T08:45:46;1.55;;;1.45;;
10052;SDS011;52418;53.134;8.236;2022-10-28T08:48:25;1.60;;;1.50;;
10052;SDS011;52418;53.134;8.236;2022-10-28T08:50:53;1.50;;;1.40;;
10052;SDS011;52418;53.134;8.236;2022-10-28T08:53:22;1.30;;;1.30;;
10052;SDS011;52418;53.134;8.236;2022-10-28T08:55:52;1.50;;;1.40;;
10052;SDS011;52418;53.134;8.236;2022-10-28T08:58:55;1.55;;;1.45;;
10052;SDS011;52418;53.134;8.236;2022-10-28T09:04:03;1.48;;;1.40;;
10052;SDS011;52418;53.134;8.236;2022-10-28T09:06:46;1.50;;;1.40;;
10052;SDS011;52418;53.134;8.236;2022-10-28T09:09:16;1.50;;;1.40;;
10052;SDS011;52418;53.134;8.236;2022-10-28T09:11:54;1.40;;;1.38;;
10052;SDS011;52418;53.134;8.236;2022-10-28T09:16:55;1.50;;;1.40;;
10052;SDS011;52418;53.134;8.236;2022-10-28T09:19:32;1.30;;;1.30;;
10052;SDS011;52418;53.134;8.236;2022-10-28T09:25:00;1.48;;;1.40;;
10052;SDS011;52418;53.134;8.236;2022-10-28T09:32:58;1.27;;;1.27;;
10052;SDS011;52418;53.134;8.236;2022-10-28T09:35:25;1.50;;;1.40;;
10052;SDS011;52418;53.134;8.236;2022-10-28T09:38:01;1.60;;;1.50;;
10052;SDS011;52418;53.134;8.236;2022-10-28T09:40:44;1.50;;;1.40;;
10052;SDS011;52418;53.134;8.236;2022-10-28T09:43:19;1.50;;;1.40;;
10052;SDS011;52418;53.134;8.236;2022-10-28T09:45:47;1.50;;;1.40;;
10052;SDS011;52418;53.134;8.236;2022-10-28T09:50:39;1.35;;;1.33;;
10052;SDS011;52418;53.134;8.236;2022-10-28T09:53:25;1.38;;;1.38;;
10052;SDS011;52418;53.134;8.236;2022-10-28T09:55:53;1.30;;;1.30;;
10052;SDS011;52418;53.134;8.236;2022-10-28T09:58:19;1.33;;;1.30;;
10052;SDS011;52418;53.134;8.236;2022-10-28T10:00:44;1.30;;;1.30;;
10052;SDS011;52418;53.134;8.236;2022-10-28T10:03:10;1.20;;;1.20;;
10052;SDS011;52418;53.134;8.236;2022-10-28T10:05:40;1.30;;;1.30;;
10052;SDS011;52418;53.134;8.236;2022-10-28T10:08:06;1.30;;;1.30;;
10052;SDS011;52418;53.134;8.236;2022-10-28T10:10:41;1.10;;;1.10;;
10052;SDS011;52418;53.134;8.236;2022-10-28T10:13:09;1.20;;;1.20;;
10052;SDS011;52418;53.134;8.236;2022-10-28T10:15:37;1.20;;;1.20;;
10052;SDS011;52418;53.134;8.236;2022-10-28T10:18:03;1.20;;;1.20;;
10052;SDS011;52418;53.134;8.236;2022-10-28T10:20:44;1.30;;;1.30;;
10052;SDS011;52418;53.134;8.236;2022-10-28T10:23:29;1.50;;;1.40;;
10052;SDS011;52418;53.134;8.236;2022-10-28T10:25:57;1.25;;;1.25;;
10052;SDS011;52418;53.134;8.236;2022-10-28T10:28:22;1.20;;;1.20;;
10052;SDS011;52418;53.134;8.236;2022-10-28T10:30:56;1.35;;;1.30;;
10052;SDS011;52418;53.134;8.236;2022-10-28T10:35:58;1.50;;;1.40;;
10052;SDS011;52418;53.134;8.236;2022-10-28T10:38:24;1.20;;;1.20;;
10052;SDS011;52418;53.134;8.236;2022-10-28T10:40:50;1.30;;;1.30;;
10052;SDS011;52418;53.134;8.236;2022-10-28T10:45:44;1.10;;;1.10;;
10052;SDS011;52418;53.134;8.236;2022-10-28T10:48:14;1.30;;;1.30;;
10052;SDS011;52418;53.134;8.236;2022-10-28T10:50:41;1.23;;;1.23;;
10052;SDS011;52418;53.134;8.236;2022-10-28T10:53:14;1.20;;;1.20;;
10052;SDS011;52418;53.134;8.236;2022-10-28T10:55:40;1.20;;;1.20;;
10052;SDS011;52418;53.134;8.236;2022-10-28T10:58:06;1.33;;;1.30;;
10052;SDS011;52418;53.134;8.236;2022-10-28T11:00:42;1.30;;;1.30;;
10052;SDS011;52418;53.134;8.236;2022-10-28T11:03:11;1.42;;;1.33;;
10052;SDS011;52418;53.134;8.236;2022-10-28T11:05:45;1.20;;;1.20;;
10052;SDS011;52418;53.134;8.236;2022-10-28T11:08:11;1.13;;;1.13;;
10052;SDS011;52418;53.134;8.236;2022-10-28T11:10:44;1.20;;;1.20;;
10052;SDS011;52418;53.134;8.236;2022-10-28T11:13:26;1.20;;;1.20;;
10052;SDS011;52418;53.134;8.236;2022-10-28T11:18:42;1.20;;;1.20;;
10052;SDS011;52418;53.134;8.236;2022-10-28T11:21:14;1.50;;;1.40;;
10052;SDS011;52418;53.134;8.236;2022-10-28T11:24:00;1.10;;;1.10;;
10052;SDS011;52418;53.134;8.236;2022-10-28T11:26:30;1.20;;;1.20;;
10052;SDS011;52418;53.134;8.236;2022-10-28T11:29:04;1.20;;;1.20;;
10052;SDS011;52418;53.134;8.236;2022-10-28T11:36:52;1.10;;;1.10;;
10052;SDS011;52418;53.134;8.236;2022-10-28T11:39:27;1.10;;;1.10;;
10052;SDS011;52418;53.134;8.236;2022-10-28T11:44:37;1.20;;;1.20;;
10052;SDS011;52418;53.134;8.236;2022-10-28T11:54:41;1.10;;;1.10;;
10052;SDS011;52418;53.134;8.236;2022-10-28T11:57:13;1.20;;;1.20;;
10052;SDS011;52418;53.134;8.236;2022-10-28T12:12:50;1.10;;;1.10;;
10052;SDS011;52418;53.134;8.236;2022-10-28T12:15:33;1.10;;;1.10;;
10052;SDS011;52418;53.134;8.236;2022-10-28T12:23:23;1.20;;;1.20;;
10052;SDS011;52418;53.134;8.236;2022-10-28T12:25:50;1.05;;;1.05;;
10052;SDS011;52418;53.134;8.236;2022-10-28T12:28:36;1.20;;;1.20;;
10052;SDS011;52418;53.134;8.236;2022-10-28T12:31:04;1.10;;;1.10;;
10052;SDS011;52418;53.134;8.236;2022-10-28T12:33:36;1.10;;;1.10;;
10052;SDS011;52418;53.134;8.236;2022-10-28T12:41:26;1.17;;;1.17;;
10052;SDS011;52418;53.134;8.236;2022-10-28T12:52:01;1.20;;;1.20;;
10052;SDS011;52418;53.134;8.236;2022-10-28T12:54:32;1.10;;;1.10;;
10052;SDS011;52418;53.134;8.236;2022-10-28T12:57:02;1.10;;;1.10;;
10052;SDS011;52418;53.134;8.236;2022-10-28T12:59:33;1.20;;;1.20;;
10052;SDS011;52418;53.134;8.236;2022-10-28T13:04:32;1.20;;;1.20;;
10052;SDS011;52418;53.134;8.236;2022-10-28T13:20:16;1.20;;;1.20;;
10052;SDS011;52418;53.134;8.236;2022-10-28T13:25:34;1.20;;;1.20;;
10052;SDS011;52418;53.134;8.236;2022-10-28T13:28:01;1.20;;;1.20;;
10052;SDS011;52418;53.134;8.236;2022-10-28T13:30:26;1.20;;;1.20;;
10052;SDS011;52418;53.134;8.236;2022-10-28T13:33:26;1.20;;;1.20;;
10052;SDS011;52418;53.134;8.236;2022-10-28T13:35:44;1.10;;;1.10;;
10052;SDS011;52418;53.134;8.236;2022-10-28T13:38:11;1.30;;;1.30;;
10052;SDS011;52418;53.134;8.236;2022-10-28T13:43:02;1.20;;;1.20;;
10052;SDS011;52418;53.134;8.236;2022-10-28T13:45:43;1.20;;;1.20;;
10052;SDS011;52418;53.134;8.236;2022-10-28T13:55:59;1.17;;;1.17;;
10052;SDS011;52418;53.134;8.236;2022-10-28T13:58:35;1.10;;;1.10;;
10052;SDS011;52418;53.134;8.236;2022-10-28T14:03:49;1.10;;;1.10;;
10052;SDS011;52418;53.134;8.236;2022-10-28T14:06:22;1.20;;;1.20;;
10052;SDS011;52418;53.134;8.236;2022-10-28T14:08:53;1.10;;;1.10;;
10052;SDS011;52418;53.134;8.236;2022-10-28T14:11:23;1.13;;;1.13;;
10052;SDS011;52418;53.134;8.236;2022-10-28T14:13:49;1.20;;;1.20;;
10052;SDS011;52418;53.134;8.236;2022-10-28T14:16:20;1.10;;;1.10;;
10052;SDS011;52418;53.134;8.236;2022-10-28T14:19:05;1.20;;;1.20;;
10052;SDS011;52418;53.134;8.236;2022-10-28T14:29:48;1.20;;;1.20;;
10052;SDS011;52418;53.134;8.236;2022-10-28T14:35:02;1.10;;;1.10;;
10052;SDS011;52418;53.134;8.236;2022-10-28T14:37:44;1.10;;;1.10;;
10052;SDS011;52418;53.134;8.236;2022-10-28T14:40:32;1.10;;;1.10;;
10052;SDS011;52418;53.134;8.236;2022-10-28T14:52:56;0.98;;;0.98;;
10052;SDS011;52418;53.134;8.236;2022-10-28T14:55:24;1.02;;;1.02;;
10052;SDS011;52418;53.134;8.236;2022-10-28T14:57:49;1.00;;;1.00;;
10052;SDS011;52418;53.134;8.236;2022-10-28T15:00:19;1.00;;;1.00;;
10052;SDS011;52418;53.134;8.236;2022-10-28T15:02:44;1.10;;;1.10;;
10052;SDS011;52418;53.134;8.236;2022-10-28T15:05:20;1.00;;;1.00;;
10052;SDS011;52418;53.134;8.236;2022-10-28T15:07:46;1.10;;;1.10;;
10052;SDS011;52418;53.134;8.236;2022-10-28T15:10:15;1.10;;;1.10;;
10052;SDS011;52418;53.134;8.236;2022-10-28T15:12:42;1.10;;;1.10;;
10052;SDS011;52418;53.134;8.236;2022-10-28T15:15:18;1.10;;;1.10;;
10052;SDS011;52418;53.134;8.236;2022-10-28T15:17:44;1.10;;;1.10;;
10052;SDS011;52418;53.134;8.236;2022-10-28T15:20:20;1.00;;;1.00;;
10052;SDS011;52418;53.134;8.236;2022-10-28T15:22:45;1.00;;;1.00;;
10052;SDS011;52418;53.134;8.236;2022-10-28T15:25:22;1.10;;;1.10;;
10052;SDS011;52418;53.134;8.236;2022-10-28T15:27:50;1.10;;;1.10;;
10052;SDS011;52418;53.134;8.236;2022-10-28T15:30:16;1.00;;;1.00;;
10052;SDS011;52418;53.134;8.236;2022-10-28T15:32:47;1.00;;;1.00;;
10052;SDS011;52418;53.134;8.236;2022-10-28T15:37:54;1.10;;;1.10;;
10052;SDS011;52418;53.134;8.236;2022-10-28T15:40:20;1.05;;;1.05;;
10052;SDS011;52418;53.134;8.236;2022-10-28T15:43:05;1.10;;;1.10;;
10052;SDS011;52418;53.134;8.236;2022-10-28T15:45:31;1.10;;;1.10;;
10052;SDS011;52418;53.134;8.236;2022-10-28T15:47:57;1.00;;;1.00;;
10052;SDS011;52418;53.134;8.236;2022-10-28T15:50:29;1.00;;;1.00;;
10052;SDS011;52418;53.134;8.236;2022-10-28T15:55:39;0.98;;;0.98;;
10052;SDS011;52418;53.134;8.236;2022-10-28T16:00:52;1.10;;;1.10;;
10052;SDS011;52418;53.134;8.236;2022-10-28T16:03:23;1.10;;;1.10;;
10052;SDS011;52418;53.134;8.236;2022-10-28T16:05:48;1.10;;;1.10;;
10052;SDS011;52418;53.134;8.236;2022-10-28T16:08:15;1.00;;;1.00;;
10052;SDS011;52418;53.134;8.236;2022-10-28T16:10:42;1.00;;;1.00;;
10052;SDS011;52418;53.134;8.236;2022-10-28T16:13:12;1.10;;;1.10;;
10052;SDS011;52418;53.134;8.236;2022-10-28T16:15:42;1.00;;;1.00;;
10052;SDS011;52418;53.134;8.236;2022-10-28T16:18:09;1.10;;;1.10;;
10052;SDS011;52418;53.134;8.236;2022-10-28T16:20:35;1.00;;;1.00;;
10052;SDS011;52418;53.134;8.236;2022-10-28T16:23:00;1.00;;;1.00;;
10052;SDS011;52418;53.134;8.236;2022-10-28T16:25:26;1.00;;;1.00;;
10052;SDS011;52418;53.134;8.236;2022-10-28T16:27:51;1.00;;;1.00;;
10052;SDS011;52418;53.134;8.236;2022-10-28T16:30:16;1.00;;;1.00;;
10052;SDS011;52418;53.134;8.236;2022-10-28T16:32:46;1.00;;;1.00;;
10052;SDS011;52418;53.134;8.236;2022-10-28T16:35:13;1.00;;;1.00;;
10052;SDS011;52418;53.134;8.236;2022-10-28T16:37:38;1.00;;;1.00;;
10052;SDS011;52418;53.134;8.236;2022-10-28T16:42:34;1.10;;;1.10;;
10052;SDS011;52418;53.134;8.236;2022-10-28T16:44:59;1.10;;;1.10;;
10052;SDS011;52418;53.134;8.236;2022-10-28T16:47:25;1.10;;;1.10;;
10052;SDS011;52418;53.134;8.236;2022-10-28T16:49:53;1.00;;;1.00;;
10052;SDS011;52418;53.134;8.236;2022-10-28T16:52:20;1.00;;;1.00;;
10052;SDS011;52418;53.134;8.236;2022-10-28T16:54:46;1.00;;;1.00;;
10052;SDS011;52418;53.134;8.236;2022-10-28T16:57:11;1.00;;;1.00;;
10052;SDS011;52418;53.134;8.236;2022-10-28T16:59:36;1.08;;;1.08;;
10052;SDS011;52418;53.134;8.236;2022-10-28T17:02:02;1.00;;;1.00;;
10052;SDS011;52418;53.134;8.236;2022-10-28T17:04:27;0.90;;;0.90;;
10052;SDS011;52418;53.134;8.236;2022-10-28T17:06:53;0.95;;;0.95;;
10052;SDS011;52418;53.134;8.236;2022-10-28T17:09:18;1.00;;;1.00;;
10052;SDS011;52418;53.134;8.236;2022-10-28T17:11:43;1.00;;;1.00;;
10052;SDS011;52418;53.134;8.236;2022-10-28T17:14:09;1.00;;;1.00;;
10052;SDS011;52418;53.134;8.236;2022-10-28T17:16:35;1.00;;;1.00;;
10052;SDS011;52418;53.134;8.236;2022-10-28T17:19:00;0.90;;;0.90;;
10052;SDS011;52418;53.134;8.236;2022-10-28T17:21:25;1.00;;;1.00;;
10052;SDS011;52418;53.134;8.236;2022-10-28T17:23:50;1.10;;;1.10;;
10052;SDS011;52418;53.134;8.236;2022-10-28T17:26:15;1.10;;;1.10;;
10052;SDS011;52418;53.134;8.236;2022-10-28T17:28:41;1.00;;;1.00;;
10052;SDS011;52418;53.134;8.236;2022-10-28T17:31:06;0.93;;;0.93;;
10052;SDS011;52418;53.134;8.236;2022-10-28T17:33:32;1.00;;;1.00;;
10052;SDS011;52418;53.134;8.236;2022-10-28T17:36:01;1.00;;;1.00;;
10052;SDS011;52418;53.134;8.236;2022-10-28T17:38:26;0.90;;;0.90;;
10052;SDS011;52418;53.134;8.236;2022-10-28T17:40:53;1.00;;;1.00;;